West Leipsic, Ohio
Current Conditions -  °F | °C
As of 8:53 PM on Friday 21 Nov 2014 (Local Time) from KFDY Reporting Station
Clear Clear  
Wind Chill:   Ceiling: Unl
Heat Index: 18°   Visibility: 10mi
Dew Point: 10°   Wind: 9mph
Humidity: 71%   Direction: 170°S
Pressure: 30.4"   Gusts: NA
Location:  41.1137°N, 83.9935°W
Report Text: KFDY 220153Z AUTO 17008KT 10SM CLR M08/M12 A3040 RMK AO2 SLP307 T10781122
Loading
Personal Weather Stations






























Interactive Weather Map New forecast layout! Learn more

10-Day Weather Forecast

Advertisements
Track Severe Weather on mobile